createdAt,value
2023-04-29T00:00:08.501Z,99256.31
2023-04-29T00:02:35.775Z,99253.59
2023-04-29T00:05:05.304Z,99259.50
2023-04-29T00:07:36.465Z,99247.06
2023-04-29T00:10:03.291Z,99256.78
2023-04-29T00:12:31.913Z,99250.59
2023-04-29T00:14:58.530Z,99246.56
2023-04-29T00:17:25.177Z,99254.22
2023-04-29T00:19:51.996Z,99259.16
2023-04-29T00:22:19.082Z,99256.44
2023-04-29T00:24:45.684Z,99260.91
2023-04-29T00:27:12.222Z,99260.91
2023-04-29T00:29:38.761Z,99257.22
2023-04-29T00:32:05.473Z,99257.31
2023-04-29T00:34:32.073Z,99264.19
2023-04-29T00:36:58.638Z,99270.72
2023-04-29T00:39:25.359Z,99269.41
2023-04-29T00:41:52.575Z,99273.53
2023-04-29T00:44:19.423Z,99270.81
2023-04-29T00:46:46.032Z,99277.97
2023-04-29T00:49:13.854Z,99271.09
2023-04-29T00:51:41.206Z,99263.09
2023-04-29T00:54:08.958Z,99271.53
2023-04-29T00:56:36.611Z,99265.13
2023-04-29T00:59:04.791Z,99262.72
2023-04-29T01:01:31.547Z,99258.25
2023-04-29T01:03:58.942Z,99256.16
2023-04-29T01:06:59.265Z,99265.19
2023-04-29T01:09:44.343Z,99278.88
2023-04-29T01:12:41.594Z,99275.47
2023-04-29T01:15:22.542Z,99270.34
2023-04-29T01:18:10.367Z,99274.59
2023-04-29T01:20:38.090Z,99284.41
2023-04-29T01:23:05.054Z,99283.13
2023-04-29T01:25:31.586Z,99282.16
2023-04-29T01:28:45.367Z,99293.38
2023-04-29T01:31:32.680Z,99296.22
2023-04-29T01:34:10.674Z,99292.41
2023-04-29T01:36:44.318Z,99302.22
2023-04-29T01:39:27.266Z,99301.13
2023-04-29T01:42:00.645Z,99302.22
2023-04-29T01:44:29.743Z,99290.59
2023-04-29T01:46:56.951Z,99289.28
2023-04-29T01:49:27.223Z,99294.69
2023-04-29T01:51:54.171Z,99284.97
2023-04-29T01:54:22.438Z,99281.78
2023-04-29T01:56:49.034Z,99286.19
2023-04-29T01:59:15.623Z,99282.50
2023-04-29T02:01:42.354Z,99281.03
2023-04-29T02:04:08.925Z,99285.91
2023-04-29T02:06:35.477Z,99283.53
2023-04-29T02:09:02.003Z,99276.63
2023-04-29T02:11:28.536Z,99284.25
2023-04-29T02:13:55.114Z,99281.00
2023-04-29T02:16:21.893Z,99272.22
2023-04-29T02:18:48.494Z,99275.53
2023-04-29T02:21:15.032Z,99274.03
2023-04-29T02:23:41.664Z,99274.63
2023-04-29T02:26:09.438Z,99270.09
2023-04-29T02:28:36.138Z,99288.88
2023-04-29T02:31:02.892Z,99282.47
2023-04-29T02:33:29.441Z,99290.34
2023-04-29T02:35:56.250Z,99292.56
2023-04-29T02:38:22.913Z,99295.06
2023-04-29T02:40:50.322Z,99304.28
2023-04-29T02:43:17.139Z,99304.59
2023-04-29T02:45:44.709Z,99308.69
2023-04-29T02:48:11.561Z,99310.06
2023-04-29T02:50:38.241Z,99298.47
2023-04-29T02:53:04.819Z,99303.38
2023-04-29T02:55:31.350Z,99307.47
2023-04-29T02:57:57.881Z,99306.69
2023-04-29T03:00:24.523Z,99303.16
2023-04-29T03:02:51.188Z,99301.28
2023-04-29T03:05:17.925Z,99307.47
2023-04-29T03:07:44.438Z,99293.84
2023-04-29T03:10:12.212Z,99294.66
2023-04-29T03:12:39.525Z,99301.38
2023-04-29T03:15:07.947Z,99294.88
2023-04-29T03:17:35.002Z,99298.88
2023-04-29T03:20:01.740Z,99290.47
2023-04-29T03:22:28.404Z,99302.06
2023-04-29T03:24:54.934Z,99297.97
2023-04-29T03:27:21.437Z,99293.84
2023-04-29T03:29:48.537Z,99293.28
2023-04-29T03:32:15.173Z,99294.06
2023-04-29T03:34:41.722Z,99294.88
2023-04-29T03:37:08.666Z,99298.69
2023-04-29T03:39:35.211Z,99305.69
2023-04-29T03:42:02.856Z,99305.88
2023-04-29T03:44:29.491Z,99302.88
2023-04-29T03:46:56.060Z,99301.78
2023-04-29T03:49:23.701Z,99307.69
2023-04-29T03:51:50.322Z,99310.88
2023-04-29T03:54:17.440Z,99320.09
2023-04-29T03:56:44.039Z,99315.81
2023-04-29T03:59:10.831Z,99311.50
2023-04-29T04:01:37.375Z,99309.06
2023-04-29T04:04:04.109Z,99315.31
2023-04-29T04:06:31.909Z,99319.13
2023-04-29T04:08:58.542Z,99315.31
2023-04-29T04:11:25.298Z,99316.41
2023-04-29T04:13:52.148Z,99322.09
2023-04-29T04:16:18.711Z,99313.69
2023-04-29T04:18:45.393Z,99325.50
2023-04-29T04:21:12.709Z,99326.00
2023-04-29T04:23:44.129Z,99324.63
2023-04-29T04:26:10.761Z,99324.31
2023-04-29T04:28:37.297Z,99323.69
2023-04-29T04:31:05.188Z,99329.13
2023-04-29T04:33:32.339Z,99326.13
2023-04-29T04:35:58.936Z,99326.34
2023-04-29T04:38:26.399Z,99320.31
2023-04-29T04:40:53.076Z,99329.72
2023-04-29T04:43:19.812Z,99328.31
2023-04-29T04:45:46.550Z,99345.56
2023-04-29T04:48:13.385Z,99339.53
2023-04-29T04:50:40.189Z,99352.16
2023-04-29T04:53:06.845Z,99344.75
2023-04-29T04:55:33.821Z,99350.25
2023-04-29T04:58:00.513Z,99351.47
2023-04-29T05:00:27.025Z,99353.56
2023-04-29T05:02:53.760Z,99363.47
2023-04-29T05:05:20.509Z,99354.13
2023-04-29T05:07:47.352Z,99362.16
2023-04-29T05:10:13.968Z,99361.84
2023-04-29T05:12:40.652Z,99365.97
2023-04-29T05:15:07.935Z,99371.63
2023-04-29T05:17:36.529Z,99362.69
2023-04-29T05:20:03.529Z,99368.59
2023-04-29T05:22:30.101Z,99366.84
2023-04-29T05:25:02.679Z,99380.06
2023-04-29T05:27:29.933Z,99375.00
2023-04-29T05:29:57.007Z,99385.97
2023-04-29T05:32:23.833Z,99383.69
2023-04-29T05:34:50.739Z,99392.25
2023-04-29T05:37:17.304Z,99398.75
2023-04-29T05:39:43.922Z,99395.06
2023-04-29T05:42:10.521Z,99397.41
2023-04-29T05:44:37.110Z,99405.72
2023-04-29T05:47:03.909Z,99395.81
2023-04-29T05:49:30.496Z,99401.22
2023-04-29T05:51:57.023Z,99402.81
2023-04-29T05:54:23.567Z,99400.72
2023-04-29T05:56:50.150Z,99408.38
2023-04-29T05:59:16.675Z,99410.56
2023-04-29T06:01:43.234Z,99407.66
2023-04-29T06:04:09.970Z,99409.88
2023-04-29T06:06:36.856Z,99412.25
2023-04-29T06:09:08.438Z,99419.31
2023-04-29T06:11:37.448Z,99412.78
2023-04-29T06:14:04.026Z,99412.19
2023-04-29T06:18:57.385Z,99429.44
2023-04-29T06:21:24.008Z,99432.34
2023-04-29T06:23:50.712Z,99431.72
2023-04-29T06:26:17.527Z,99432.50
2023-04-29T06:28:44.075Z,99442.75
2023-04-29T06:31:10.780Z,99442.44
2023-04-29T06:33:37.491Z,99445.94
2023-04-29T06:36:04.515Z,99445.94
2023-04-29T06:38:31.150Z,99442.44
2023-04-29T06:41:00.749Z,99452.47
2023-04-29T06:43:28.040Z,99445.94
2023-04-29T06:45:54.715Z,99457.31
2023-04-29T06:48:21.607Z,99456.50
2023-04-29T06:50:54.995Z,99447.38
2023-04-29T06:53:22.397Z,99455.19
2023-04-29T06:55:49.100Z,99464.13
2023-04-29T06:58:16.669Z,99465.44
2023-04-29T07:00:48.364Z,99468.16
2023-04-29T07:03:15.637Z,99468.63
2023-04-29T07:05:45.340Z,99471.84
2023-04-29T07:08:13.360Z,99472.94
2023-04-29T07:10:40.459Z,99481.69
2023-04-29T07:13:08.434Z,99479.28
2023-04-29T07:15:36.318Z,99476.28
2023-04-29T07:18:06.738Z,99494.13
2023-04-29T07:20:33.437Z,99484.09
2023-04-29T07:23:00.007Z,99488.72
2023-04-29T07:25:29.302Z,99495.75
2023-04-29T07:27:56.665Z,99498.44
2023-04-29T07:30:24.155Z,99502.75
2023-04-29T07:32:50.719Z,99497.03
2023-04-29T07:35:17.429Z,99497.72
2023-04-29T07:37:44.187Z,99504.75
2023-04-29T07:40:11.403Z,99501.91
2023-04-29T07:42:38.010Z,99510.75
2023-04-29T07:45:05.582Z,99509.22
2023-04-29T07:47:32.186Z,99509.09
2023-04-29T07:49:59.072Z,99507.88
2023-04-29T07:52:25.607Z,99501.03
2023-04-29T07:54:52.361Z,99512.50
2023-04-29T07:57:19.059Z,99521.75
2023-04-29T07:59:45.711Z,99515.50
2023-04-29T08:02:12.233Z,99523.16
2023-04-29T08:04:42.602Z,99524.75
2023-04-29T08:07:09.672Z,99531.19
2023-04-29T08:09:36.255Z,99524.34
2023-04-29T08:12:02.903Z,99528.94
2023-04-29T08:14:29.492Z,99541.41
2023-04-29T08:16:56.110Z,99538.41
2023-04-29T08:19:22.883Z,99536.50
2023-04-29T08:21:49.474Z,99539.81
2023-04-29T08:24:16.009Z,99538.81
2023-04-29T08:26:42.949Z,99541.22
2023-04-29T08:29:09.513Z,99548.25
2023-04-29T08:31:36.232Z,99547.94
2023-04-29T08:34:02.914Z,99540.22
2023-04-29T08:36:29.892Z,99541.19
2023-04-29T08:38:56.619Z,99554.13
2023-04-29T08:41:23.400Z,99549.03
2023-04-29T08:43:50.037Z,99554.13
2023-04-29T08:46:18.163Z,99549.81
2023-04-29T08:48:45.478Z,99546.63
2023-04-29T08:51:16.074Z,99553.44
2023-04-29T08:53:42.797Z,99543.41
2023-04-29T08:56:16.504Z,99547.13
2023-04-29T08:58:43.573Z,99552.72
2023-04-29T09:01:11.105Z,99553.22
2023-04-29T09:04:15.916Z,99557.84
2023-04-29T09:06:42.460Z,99562.88
2023-04-29T09:09:09.878Z,99558.19
2023-04-29T09:11:37.399Z,99561.31
2023-04-29T09:14:04.507Z,99566.53
2023-04-29T09:16:31.340Z,99566.34
2023-04-29T09:18:58.187Z,99573.19
2023-04-29T09:21:31.564Z,99573.19
2023-04-29T09:24:02.639Z,99573.41
2023-04-29T09:26:43.974Z,99568.75
2023-04-29T09:29:18.303Z,99571.34
2023-04-29T09:31:45.911Z,99579.00
2023-04-29T09:34:14.265Z,99573.56
2023-04-29T09:36:49.759Z,99574.88
2023-04-29T09:39:19.377Z,99573.66
2023-04-29T09:41:54.947Z,99584.31
2023-04-29T09:44:25.692Z,99584.84
2023-04-29T09:47:09.134Z,99583.75
2023-04-29T09:49:45.358Z,99578.84
2023-04-29T09:52:14.966Z,99590.19
2023-04-29T09:54:42.929Z,99589.22
2023-04-29T09:57:11.801Z,99590.53
2023-04-29T09:59:40.258Z,99581.00
2023-04-29T10:02:18.264Z,99586.53
2023-04-29T10:04:47.061Z,99590.09
2023-04-29T10:07:16.626Z,99591.72
2023-04-29T10:09:45.904Z,99588.69
2023-04-29T10:12:16.375Z,99598.13
2023-04-29T10:14:48.973Z,99594.97
2023-04-29T10:17:27.286Z,99590.41
2023-04-29T10:20:05.998Z,99586.13
2023-04-29T10:22:47.942Z,99585.03
2023-04-29T10:25:20.025Z,99588.56
2023-04-29T10:27:47.039Z,99585.22
2023-04-29T10:30:19.955Z,99589.91
2023-04-29T10:32:52.152Z,99586.06
2023-04-29T10:35:23.281Z,99591.25
2023-04-29T10:37:50.695Z,99580.53
2023-04-29T10:40:18.774Z,99588.41
2023-04-29T10:42:48.386Z,99587.56
2023-04-29T10:45:27.570Z,99595.72
2023-04-29T10:48:14.927Z,99598.72
2023-04-29T10:50:47.227Z,99603.59
2023-04-29T10:53:22.045Z,99598.13
2023-04-29T10:55:53.147Z,99605.16
2023-04-29T10:58:37.967Z,99600.84
2023-04-29T11:01:05.538Z,99602.50
2023-04-29T11:04:00.434Z,99606.03
2023-04-29T11:06:36.499Z,99604.78
2023-04-29T11:09:14.662Z,99597.13
2023-04-29T11:11:46.444Z,99602.25
2023-04-29T11:14:14.261Z,99610.66
2023-04-29T11:16:49.422Z,99607.44
2023-04-29T11:19:17.960Z,99602.97
2023-04-29T11:21:47.045Z,99605.22
2023-04-29T11:24:16.207Z,99602.00
2023-04-29T11:26:44.030Z,99599.97
2023-04-29T11:29:10.814Z,99604.28
2023-04-29T11:31:39.372Z,99596.13
2023-04-29T11:34:07.413Z,99599.06
2023-04-29T11:36:34.516Z,99600.91
2023-04-29T11:39:03.621Z,99607.06
2023-04-29T11:41:31.652Z,99603.09
2023-04-29T11:43:59.733Z,99603.25
2023-04-29T11:46:28.248Z,99604.06
2023-04-29T11:48:54.972Z,99600.03
2023-04-29T11:51:22.560Z,99604.69
2023-04-29T11:53:49.383Z,99596.69
2023-04-29T11:56:16.061Z,99599.69
2023-04-29T11:58:43.814Z,99605.56
2023-04-29T12:01:11.325Z,99605.09
2023-04-29T12:03:38.249Z,99596.44
2023-04-29T12:06:06.599Z,99607.31
2023-04-29T12:08:34.890Z,99609.56
2023-04-29T12:11:01.791Z,99615.03
2023-04-29T12:13:31.602Z,99614.09
2023-04-29T12:15:58.977Z,99628.28
2023-04-29T12:18:27.650Z,99620.28
2023-04-29T12:20:57.416Z,99626.34
2023-04-29T12:23:27.975Z,99640.38
2023-04-29T12:25:57.827Z,99633.03
2023-04-29T12:28:25.521Z,99638.19
2023-04-29T12:30:56.741Z,99636.97
2023-04-29T12:33:27.062Z,99630.56
2023-04-29T12:35:56.955Z,99627.41
2023-04-29T12:38:27.742Z,99634.81
2023-04-29T12:40:55.459Z,99625.78
2023-04-29T12:43:33.813Z,99637.84
2023-04-29T12:46:05.103Z,99630.22
2023-04-29T12:48:33.475Z,99634.06
2023-04-29T12:51:01.729Z,99630.56
2023-04-29T12:53:30.260Z,99642.91
2023-04-29T12:55:57.741Z,99645.16
2023-04-29T12:58:24.342Z,99650.09
2023-04-29T13:00:51.138Z,99646.72
2023-04-29T13:03:19.168Z,99649.09
2023-04-29T13:05:51.437Z,99644.28
2023-04-29T13:08:19.371Z,99647.50
2023-04-29T13:10:46.350Z,99647.63
2023-04-29T13:13:13.209Z,99645.50
2023-04-29T13:15:39.776Z,99638.72
2023-04-29T13:18:06.524Z,99632.97
2023-04-29T13:20:39.866Z,99635.81
2023-04-29T13:23:08.116Z,99638.41
2023-04-29T13:25:34.647Z,99641.59
2023-04-29T13:28:01.150Z,99637.44
2023-04-29T13:30:27.692Z,99638.13
2023-04-29T13:32:56.712Z,99641.31
2023-04-29T13:35:29.659Z,99632.84
2023-04-29T13:37:57.022Z,99638.28
2023-04-29T13:40:27.503Z,99641.50
2023-04-29T13:43:02.149Z,99636.69
2023-04-29T13:45:39.046Z,99642.13
2023-04-29T13:48:18.361Z,99640.84
2023-04-29T13:53:51.228Z,99645.50
2023-04-29T13:59:18.893Z,99639.03
2023-04-29T14:02:14.857Z,99646.59
2023-04-29T14:04:11.373Z,99645.50
2023-04-29T14:06:38.329Z,99644.72
2023-04-29T14:09:04.890Z,99634.84
2023-04-29T14:11:36.389Z,99646.22
2023-04-29T14:14:03.524Z,99637.91
2023-04-29T14:16:30.783Z,99644.16
2023-04-29T14:18:57.681Z,99642.44
2023-04-29T14:21:24.263Z,99646.44
2023-04-29T14:23:51.142Z,99645.47
2023-04-29T14:26:28.046Z,99643.06
2023-04-29T14:28:59.713Z,99647.88
2023-04-29T14:31:28.169Z,99642.25
2023-04-29T14:33:56.102Z,99639.34
2023-04-29T14:36:22.970Z,99641.09
2023-04-29T14:38:49.588Z,99642.56
2023-04-29T14:41:16.213Z,99643.34
2023-04-29T14:43:42.816Z,99637.25
2023-04-29T14:46:09.457Z,99643.69
2023-04-29T14:48:36.434Z,99635.84
2023-04-29T14:51:03.055Z,99643.53
2023-04-29T14:53:29.664Z,99648.03
2023-04-29T14:55:56.270Z,99645.78
2023-04-29T14:58:22.884Z,99651.72
2023-04-29T15:00:50.998Z,99663.25
2023-04-29T15:03:22.482Z,99658.91
2023-04-29T15:05:52.210Z,99663.22
2023-04-29T15:08:19.420Z,99662.75
2023-04-29T15:10:49.941Z,99648.16
2023-04-29T15:13:16.834Z,99657.78
2023-04-29T15:15:43.372Z,99663.69
2023-04-29T15:18:10.029Z,99668.16
2023-04-29T15:20:37.464Z,99664.91
2023-04-29T15:23:05.512Z,99665.84
2023-04-29T15:25:36.543Z,99663.94
2023-04-29T15:28:04.822Z,99664.91
2023-04-29T15:30:32.241Z,99657.25
2023-04-29T15:32:58.924Z,99660.28
2023-04-29T15:35:25.625Z,99659.97
2023-04-29T15:37:52.243Z,99657.56
2023-04-29T15:40:19.405Z,99655.03
2023-04-29T15:42:46.041Z,99654.69
2023-04-29T15:45:12.773Z,99660.31
2023-04-29T15:47:39.454Z,99656.34
2023-04-29T15:50:07.208Z,99659.56
2023-04-29T15:52:33.857Z,99656.22
2023-04-29T15:55:00.392Z,99650.16
2023-04-29T15:57:27.252Z,99656.72
2023-04-29T15:59:54.242Z,99652.53
2023-04-29T16:02:21.577Z,99647.72
2023-04-29T16:04:48.405Z,99658.13
2023-04-29T16:07:15.072Z,99658.44
2023-04-29T16:09:41.690Z,99655.38
2023-04-29T16:12:08.643Z,99660.50
2023-04-29T16:14:35.205Z,99660.13
2023-04-29T16:17:02.009Z,99665.72
2023-04-29T16:19:28.746Z,99671.78
2023-04-29T16:21:55.568Z,99670.47
2023-04-29T16:24:22.239Z,99667.38
2023-04-29T16:26:50.422Z,99671.56
2023-04-29T16:29:18.424Z,99677.78
2023-04-29T16:31:45.425Z,99685.00
2023-04-29T16:34:12.706Z,99681.47
2023-04-29T16:36:39.445Z,99681.81
2023-04-29T16:39:06.276Z,99682.91
2023-04-29T16:41:33.180Z,99682.59
2023-04-29T16:43:59.723Z,99678.75
2023-04-29T16:46:26.333Z,99682.00
2023-04-29T16:48:56.745Z,99693.13
2023-04-29T16:51:26.626Z,99681.41
2023-04-29T16:53:53.448Z,99697.72
2023-04-29T16:56:21.610Z,99693.91
2023-04-29T16:58:48.644Z,99693.75
2023-04-29T17:01:15.918Z,99698.06
2023-04-29T17:03:42.616Z,99686.72
2023-04-29T17:06:09.353Z,99695.50
2023-04-29T17:08:36.154Z,99702.69
2023-04-29T17:11:04.925Z,99696.75
2023-04-29T17:13:31.688Z,99697.47
2023-04-29T17:15:58.511Z,99697.13
2023-04-29T17:18:25.059Z,99695.81
2023-04-29T17:20:51.618Z,99692.09
2023-04-29T17:23:18.350Z,99695.13
2023-04-29T17:25:45.156Z,99696.75
2023-04-29T17:28:11.776Z,99689.69
2023-04-29T17:30:38.347Z,99693.34
2023-04-29T17:33:07.799Z,99705.44
2023-04-29T17:35:34.983Z,99702.22
2023-04-29T17:38:01.504Z,99691.09
2023-04-29T17:40:28.044Z,99695.16
2023-04-29T17:42:54.660Z,99694.53
2023-04-29T17:45:21.210Z,99698.59
2023-04-29T17:47:48.481Z,99699.50
2023-04-29T17:50:15.409Z,99699.50
2023-04-29T17:52:42.708Z,99689.97
2023-04-29T17:55:10.079Z,99692.53
2023-04-29T17:57:38.144Z,99699.28
2023-04-29T18:00:07.482Z,99694.16
2023-04-29T18:02:34.679Z,99707.25
2023-04-29T18:05:03.103Z,99706.25
2023-04-29T18:07:29.506Z,99701.66
2023-04-29T18:09:56.405Z,99697.84
2023-04-29T18:12:24.127Z,99698.44
2023-04-29T18:14:51.835Z,99693.34
2023-04-29T18:17:18.639Z,99697.34
2023-04-29T18:19:47.797Z,99700.66
2023-04-29T18:22:14.576Z,99699.88
2023-04-29T18:24:41.188Z,99700.16
2023-04-29T18:27:07.910Z,99701.59
2023-04-29T18:29:34.430Z,99702.38
2023-04-29T18:32:01.112Z,99699.19
2023-04-29T18:34:27.748Z,99699.31
2023-04-29T18:36:54.277Z,99706.94
2023-04-29T18:39:20.960Z,99708.06
2023-04-29T18:41:47.531Z,99703.75
2023-04-29T18:44:14.135Z,99713.00
2023-04-29T18:46:41.162Z,99717.59
2023-04-29T18:49:08.674Z,99711.97
2023-04-29T18:51:35.481Z,99713.06
2023-04-29T18:54:01.888Z,99723.50
2023-04-29T18:56:28.543Z,99723.41
2023-04-29T18:58:55.091Z,99724.84
2023-04-29T19:01:21.715Z,99722.41
2023-04-29T19:03:48.276Z,99725.41
2023-04-29T19:06:14.864Z,99726.03
2023-04-29T19:08:41.492Z,99737.69
2023-04-29T19:11:07.892Z,99730.28
2023-04-29T19:13:34.436Z,99729.84
2023-04-29T19:16:01.106Z,99732.88
2023-04-29T19:18:27.997Z,99738.31
2023-04-29T19:20:56.084Z,99745.94
2023-04-29T19:23:22.695Z,99748.16
2023-04-29T19:25:49.278Z,99747.06
2023-04-29T19:28:15.877Z,99746.56
2023-04-29T19:30:42.495Z,99747.13
2023-04-29T19:33:09.096Z,99742.53
2023-04-29T19:35:35.720Z,99747.13
2023-04-29T19:38:02.473Z,99753.38
2023-04-29T19:40:29.049Z,99752.88
2023-04-29T19:42:55.619Z,99752.56
2023-04-29T19:45:22.300Z,99760.19
2023-04-29T19:47:50.011Z,99750.44
2023-04-29T19:50:16.630Z,99751.06
2023-04-29T19:52:43.159Z,99748.34
2023-04-29T19:55:09.859Z,99744.53
2023-04-29T19:57:36.449Z,99753.78
2023-04-29T20:00:04.571Z,99754.38
2023-04-29T20:02:32.931Z,99751.66
2023-04-29T20:04:59.615Z,99758.19
2023-04-29T20:07:26.156Z,99760.41
2023-04-29T20:09:52.843Z,99764.22
2023-04-29T20:12:19.598Z,99764.72
2023-04-29T20:14:46.420Z,99776.88
2023-04-29T20:17:13.546Z,99768.44
2023-04-29T20:19:40.079Z,99780.06
2023-04-29T20:22:06.708Z,99774.66
2023-04-29T20:24:33.334Z,99778.19
2023-04-29T20:26:59.974Z,99782.50
2023-04-29T20:29:27.161Z,99775.75
2023-04-29T20:31:53.681Z,99771.44
2023-04-29T20:34:20.246Z,99769.03
2023-04-29T20:36:46.831Z,99768.03
2023-04-29T20:39:13.473Z,99774.84
2023-04-29T20:41:40.169Z,99786.53
2023-04-29T20:44:06.657Z,99787.31
2023-04-29T20:46:33.206Z,99779.50
2023-04-29T20:48:59.811Z,99778.97
2023-04-29T20:51:26.846Z,99774.97
2023-04-29T20:53:53.649Z,99782.59
2023-04-29T20:56:20.236Z,99782.09
2023-04-29T20:58:46.848Z,99787.50
2023-04-29T21:01:13.539Z,99790.50
2023-04-29T21:03:40.627Z,99790.50
2023-04-29T21:06:07.572Z,99785.41
2023-04-29T21:08:34.124Z,99792.94
2023-04-29T21:11:01.637Z,99800.47
2023-04-29T21:13:28.266Z,99790.41
2023-04-29T21:15:54.802Z,99793.13
2023-04-29T21:18:21.385Z,99793.44
2023-04-29T21:20:48.055Z,99804.28
2023-04-29T21:23:14.610Z,99803.78
2023-04-29T21:25:41.177Z,99798.97
2023-04-29T21:28:07.752Z,99808.16
2023-04-29T21:30:34.304Z,99793.53
2023-04-29T21:33:00.991Z,99799.47
2023-04-29T21:35:27.674Z,99798.97
2023-04-29T21:37:54.566Z,99795.72
2023-04-29T21:40:21.408Z,99790.88
2023-04-29T21:42:48.178Z,99791.50
2023-04-29T21:45:18.224Z,99788.88
2023-04-29T21:47:45.260Z,99792.69
2023-04-29T21:50:12.130Z,99792.97
2023-04-29T21:52:38.785Z,99777.81
2023-04-29T21:55:05.835Z,99793.28
2023-04-29T21:57:43.547Z,99794.28
2023-04-29T22:00:20.565Z,99801.31
2023-04-29T22:02:47.229Z,99795.91
2023-04-29T22:05:13.908Z,99794.28
2023-04-29T22:07:40.715Z,99799.22
2023-04-29T22:10:07.719Z,99804.91
2023-04-29T22:12:34.231Z,99803.63
2023-04-29T22:15:00.852Z,99802.81
2023-04-29T22:17:27.603Z,99813.72
2023-04-29T22:19:54.307Z,99806.47
2023-04-29T22:22:21.023Z,99811.41
2023-04-29T22:24:47.584Z,99814.09
2023-04-29T22:27:14.188Z,99807.91
2023-04-29T22:29:40.968Z,99811.41
2023-04-29T22:32:07.638Z,99804.88
2023-04-29T22:34:34.360Z,99808.69
2023-04-29T22:37:00.875Z,99816.03
2023-04-29T22:39:27.434Z,99807.34
2023-04-29T22:41:54.018Z,99809.28
2023-04-29T22:44:20.729Z,99816.91
2023-04-29T22:46:47.360Z,99818.00
2023-04-29T22:49:13.990Z,99812.88
2023-04-29T22:51:41.435Z,99813.69
2023-04-29T22:54:08.221Z,99812.06
2023-04-29T22:56:34.750Z,99813.69
2023-04-29T22:59:01.320Z,99810.97
2023-04-29T23:01:27.970Z,99816.16
2023-04-29T23:03:54.536Z,99811.06
2023-04-29T23:06:21.470Z,99815.16
2023-04-29T23:08:48.249Z,99822.78
2023-04-29T23:11:14.810Z,99813.53
2023-04-29T23:13:41.499Z,99813.81
2023-04-29T23:16:10.624Z,99821.44
2023-04-29T23:18:37.635Z,99810.91
2023-04-29T23:21:04.413Z,99818.53
2023-04-29T23:23:30.936Z,99821.25
2023-04-29T23:25:57.541Z,99823.13
2023-04-29T23:28:24.840Z,99822.63
2023-04-29T23:30:51.526Z,99823.22
2023-04-29T23:33:18.050Z,99834.06
2023-04-29T23:35:49.659Z,99818.41
2023-04-29T23:38:16.748Z,99823.28
2023-04-29T23:40:43.401Z,99813.81
2023-04-29T23:43:10.045Z,99817.91
2023-04-29T23:45:36.598Z,99815.19
2023-04-29T23:48:03.366Z,99825.53
2023-04-29T23:50:29.953Z,99812.56
2023-04-29T23:52:56.688Z,99810.44
2023-04-29T23:55:23.272Z,99814.78
2023-04-29T23:57:49.932Z,99816.16
